createdAt,value
2022-11-27T00:04:25.852Z,0
2022-11-27T00:09:25.774Z,0
2022-11-27T00:14:25.841Z,0
2022-11-27T00:19:25.844Z,0
2022-11-27T00:24:25.961Z,0
2022-11-27T00:29:25.907Z,0
2022-11-27T00:34:25.772Z,0
2022-11-27T00:39:25.828Z,0
2022-11-27T00:44:25.832Z,0
2022-11-27T00:49:25.831Z,0
2022-11-27T00:54:25.838Z,0
2022-11-27T00:59:25.809Z,0
2022-11-27T01:04:25.885Z,0
2022-11-27T01:09:25.881Z,0
2022-11-27T01:14:25.850Z,0
2022-11-27T01:19:26.267Z,0
2022-11-27T01:24:26.144Z,0
2022-11-27T01:29:25.831Z,0
2022-11-27T01:34:25.893Z,0
2022-11-27T01:39:25.884Z,0
2022-11-27T01:44:25.838Z,0
2022-11-27T01:49:25.892Z,0
2022-11-27T01:54:25.821Z,0
2022-11-27T01:59:25.815Z,0
2022-11-27T02:04:25.829Z,0
2022-11-27T02:09:25.871Z,0
2022-11-27T02:14:25.825Z,0
2022-11-27T02:19:25.830Z,0
2022-11-27T02:24:26.000Z,0
2022-11-27T02:29:25.839Z,0
2022-11-27T02:34:25.851Z,0
2022-11-27T02:39:25.869Z,0
2022-11-27T02:44:25.845Z,0
2022-11-27T02:49:25.852Z,0
2022-11-27T02:59:25.964Z,0
2022-11-27T03:04:25.833Z,0
2022-11-27T03:09:25.848Z,0
2022-11-27T03:14:25.850Z,0
2022-11-27T03:19:25.884Z,0
2022-11-27T03:24:25.820Z,0
2022-11-27T03:29:25.932Z,0
2022-11-27T03:34:25.836Z,0
2022-11-27T03:39:25.867Z,0
2022-11-27T03:44:25.869Z,0
2022-11-27T03:49:25.815Z,0
2022-11-27T03:54:25.834Z,0
2022-11-27T03:59:25.912Z,0
2022-11-27T04:04:25.930Z,0
2022-11-27T04:09:25.841Z,0
2022-11-27T04:14:25.848Z,0
2022-11-27T04:19:25.871Z,0
2022-11-27T04:24:25.874Z,0
2022-11-27T04:29:25.885Z,0
2022-11-27T04:34:25.881Z,0
2022-11-27T04:39:25.858Z,0
2022-11-27T04:44:25.930Z,0
2022-11-27T04:49:25.862Z,0
2022-11-27T04:54:25.840Z,0
2022-11-27T04:59:26.033Z,0
2022-11-27T05:04:25.878Z,0
2022-11-27T05:09:25.882Z,0
2022-11-27T05:14:25.898Z,0
2022-11-27T05:19:25.858Z,0
2022-11-27T05:24:25.894Z,0
2022-11-27T05:29:25.889Z,0
2022-11-27T05:34:25.874Z,0
2022-11-27T05:39:25.871Z,0
2022-11-27T05:44:25.920Z,0
2022-11-27T05:49:25.876Z,0
2022-11-27T05:54:25.842Z,0
2022-11-27T05:59:25.958Z,0
2022-11-27T06:04:25.891Z,0
2022-11-27T06:09:25.918Z,0
2022-11-27T06:14:25.853Z,0
2022-11-27T06:19:25.858Z,0
2022-11-27T06:24:25.889Z,0
2022-11-27T06:29:26.036Z,0
2022-11-27T06:34:25.878Z,0
2022-11-27T06:39:25.825Z,0
2022-11-27T06:44:25.945Z,0
2022-11-27T06:49:25.908Z,0
2022-11-27T06:54:25.893Z,0
2022-11-27T06:59:25.911Z,267
2022-11-27T07:04:25.861Z,265
2022-11-27T07:09:25.843Z,267
2022-11-27T07:14:25.872Z,267
2022-11-27T07:19:26.084Z,267
2022-11-27T07:24:25.874Z,269
2022-11-27T07:29:25.938Z,267
2022-11-27T07:34:25.890Z,271
2022-11-27T07:39:54.382Z,271
2022-11-27T07:44:25.890Z,273
2022-11-27T07:49:25.881Z,273
2022-11-27T07:54:25.867Z,273
2022-11-27T07:59:25.864Z,276
2022-11-27T08:04:26.046Z,277
2022-11-27T08:09:25.925Z,279
2022-11-27T08:14:25.844Z,282
2022-11-27T08:19:25.958Z,279
2022-11-27T08:24:25.920Z,278
2022-11-27T08:29:32.651Z,280
2022-11-27T08:34:25.908Z,280
2022-11-27T08:39:25.879Z,286
2022-11-27T08:44:25.909Z,283
2022-11-27T08:49:25.901Z,282
2022-11-27T08:54:25.877Z,280
2022-11-27T08:59:25.939Z,285
2022-11-27T09:04:26.083Z,285
2022-11-27T09:09:25.861Z,285
2022-11-27T09:14:25.918Z,286
2022-11-27T09:19:25.966Z,287
2022-11-27T09:24:25.997Z,287
2022-11-27T09:29:25.901Z,286
2022-11-27T09:34:25.843Z,286
2022-11-27T09:39:25.902Z,287
2022-11-27T09:44:25.904Z,287
2022-11-27T09:49:25.939Z,291
2022-11-27T09:54:25.905Z,297
2022-11-27T09:59:25.924Z,292
2022-11-27T10:04:25.891Z,297
2022-11-27T10:09:25.893Z,294
2022-11-27T10:14:27.052Z,279
2022-11-27T10:19:25.854Z,288
2022-11-27T10:24:25.950Z,293
2022-11-27T10:29:25.982Z,298
2022-11-27T10:34:25.999Z,295
2022-11-27T10:39:25.898Z,300
2022-11-27T10:44:25.945Z,322
2022-11-27T10:49:25.928Z,301
2022-11-27T10:54:25.911Z,297
2022-11-27T10:59:32.953Z,289
2022-11-27T11:04:37.809Z,286
2022-11-27T11:09:25.923Z,285
2022-11-27T11:14:25.897Z,289
2022-11-27T11:19:25.883Z,293
2022-11-27T11:24:25.970Z,298
2022-11-27T11:29:26.010Z,304
2022-11-27T11:34:25.901Z,300
2022-11-27T11:39:25.882Z,298
2022-11-27T11:44:25.900Z,299
2022-11-27T11:49:25.905Z,304
2022-11-27T11:54:25.920Z,299
2022-11-27T11:59:25.978Z,291
2022-11-27T12:04:25.887Z,293
2022-11-27T12:09:25.981Z,302
2022-11-27T12:14:25.934Z,296
2022-11-27T12:19:25.950Z,297
2022-11-27T12:24:25.999Z,292
2022-11-27T12:29:25.902Z,285
2022-11-27T12:34:25.889Z,290
2022-11-27T12:39:26.031Z,297
2022-11-27T12:44:25.961Z,285
2022-11-27T12:49:25.932Z,283
2022-11-27T12:54:25.923Z,283
2022-11-27T12:59:25.986Z,280
2022-11-27T13:04:25.905Z,284
2022-11-27T13:09:26.012Z,277
2022-11-27T13:14:25.893Z,281
2022-11-27T13:19:25.924Z,277
2022-11-27T13:24:25.858Z,282
2022-11-27T13:29:25.926Z,280
2022-11-27T13:34:25.999Z,280
2022-11-27T13:39:25.898Z,279
2022-11-27T13:44:25.971Z,281
2022-11-27T13:49:25.890Z,280
2022-11-27T13:54:29.246Z,280
2022-11-27T13:59:25.933Z,280
2022-11-27T14:04:25.914Z,276
2022-11-27T14:09:25.919Z,275
2022-11-27T14:14:25.936Z,274
2022-11-27T14:19:33.464Z,273
2022-11-27T14:24:25.968Z,272
2022-11-27T14:29:25.879Z,273
2022-11-27T14:34:25.977Z,270
2022-11-27T14:39:25.890Z,270
2022-11-27T14:44:25.976Z,265
2022-11-27T14:49:26.047Z,0
2022-11-27T14:54:25.895Z,0
2022-11-27T14:59:25.945Z,0
2022-11-27T15:04:25.967Z,0
2022-11-27T15:09:32.253Z,0
2022-11-27T15:14:25.945Z,0
2022-11-27T15:19:26.956Z,0
2022-11-27T15:24:25.933Z,0
2022-11-27T15:29:26.110Z,0
2022-11-27T15:34:25.929Z,0
2022-11-27T15:39:25.939Z,0
2022-11-27T15:44:25.905Z,0
2022-11-27T15:49:25.984Z,0
2022-11-27T15:54:25.913Z,0
2022-11-27T15:59:25.946Z,0
2022-11-27T16:04:25.963Z,0
2022-11-27T16:09:25.953Z,0
2022-11-27T16:14:25.927Z,0
2022-11-27T16:19:25.916Z,0
2022-11-27T16:24:25.932Z,0
2022-11-27T16:29:25.914Z,0
2022-11-27T16:34:25.953Z,0
2022-11-27T16:39:25.973Z,0
2022-11-27T16:44:26.025Z,0
2022-11-27T16:49:25.975Z,0
2022-11-27T16:54:25.925Z,0
2022-11-27T17:04:25.932Z,0
2022-11-27T17:09:25.935Z,0
2022-11-27T17:14:26.001Z,0
2022-11-27T17:19:25.927Z,0
2022-11-27T17:24:25.969Z,0
2022-11-27T17:29:26.007Z,0
2022-11-27T17:34:25.933Z,0
2022-11-27T17:39:25.969Z,0
2022-11-27T17:44:25.951Z,0
2022-11-27T17:49:25.974Z,0
2022-11-27T17:54:25.926Z,0
2022-11-27T17:59:25.978Z,0
2022-11-27T18:04:25.946Z,0
2022-11-27T18:09:25.968Z,0
2022-11-27T18:14:25.909Z,0
2022-11-27T18:19:26.042Z,0
2022-11-27T18:24:25.945Z,0
2022-11-27T18:29:25.937Z,0
2022-11-27T18:34:25.946Z,0
2022-11-27T18:39:25.987Z,0
2022-11-27T18:44:25.930Z,0
2022-11-27T18:49:26.018Z,0
2022-11-27T18:54:26.012Z,0
2022-11-27T18:59:26.089Z,0
2022-11-27T19:04:25.958Z,0
2022-11-27T19:09:25.963Z,0
2022-11-27T19:14:25.939Z,0
2022-11-27T19:19:54.501Z,0
2022-11-27T19:24:25.954Z,0
2022-11-27T19:29:25.976Z,0
2022-11-27T19:34:25.911Z,0
2022-11-27T19:39:25.928Z,0
2022-11-27T19:44:25.960Z,0
2022-11-27T19:49:25.963Z,0
2022-11-27T19:54:26.030Z,0
2022-11-27T19:59:27.061Z,0
2022-11-27T20:04:26.106Z,0
2022-11-27T20:09:25.923Z,0
2022-11-27T20:14:26.004Z,0
2022-11-27T20:19:25.976Z,0
2022-11-27T20:24:25.950Z,0
2022-11-27T20:29:25.969Z,0
2022-11-27T20:34:25.937Z,0
2022-11-27T20:39:25.978Z,0
2022-11-27T20:44:26.102Z,0
2022-11-27T20:49:25.944Z,0
2022-11-27T20:54:25.952Z,0
2022-11-27T20:59:25.998Z,0
2022-11-27T21:04:25.954Z,0
2022-11-27T21:09:26.006Z,0
2022-11-27T21:14:26.051Z,0
2022-11-27T21:19:25.970Z,0
2022-11-27T21:24:26.082Z,0
2022-11-27T21:29:26.329Z,0
2022-11-27T21:34:25.958Z,0
2022-11-27T21:39:26.254Z,0
2022-11-27T21:44:25.953Z,0
2022-11-27T21:49:26.004Z,0
2022-11-27T21:54:25.945Z,0
2022-11-27T21:59:26.039Z,0
2022-11-27T22:04:25.965Z,0
2022-11-27T22:09:26.033Z,0
2022-11-27T22:14:25.995Z,0
2022-11-27T22:19:25.981Z,0
2022-11-27T22:24:25.990Z,0
2022-11-27T22:29:26.001Z,0
2022-11-27T22:34:26.032Z,0
2022-11-27T22:39:25.963Z,0
2022-11-27T22:44:25.939Z,0
2022-11-27T22:49:25.952Z,0
2022-11-27T22:54:25.982Z,0
2022-11-27T22:59:33.572Z,0
2022-11-27T23:04:25.960Z,0
2022-11-27T23:09:25.958Z,0
2022-11-27T23:14:25.959Z,0
2022-11-27T23:19:25.981Z,0
2022-11-27T23:24:26.006Z,0
2022-11-27T23:29:26.036Z,0
2022-11-27T23:34:26.002Z,0
2022-11-27T23:39:26.001Z,0
2022-11-27T23:44:26.066Z,0
2022-11-27T23:49:25.999Z,0
2022-11-27T23:54:25.966Z,0
2022-11-27T23:59:26.016Z,0
